Ana Sayfa
METAR-TAF:

METAR-TAF

Havaalanları :

Fort Hood / Killeen, Teksas, Amerika Birleşik Devletleri

Enlem: 31-06N, Boylam: 097-20W, yükseklik: 283 m

Güncel hava durumu gözlemi

Rapor saat 14:58 UTC de 52 dakika önce yapıldı.
Sakin rüzgar
Sıcaklık 4°C
Nem 93%
Basınç 1025 hPa
Görüş mesafesi: 4.8 km
500 ft yükseklikte parçalı çok bulutlu
3300 ft yükseklikte çok bulutlu
hafif yağmur, Pus

METAR: KHLR 141458Z AUTO 00000KT 3SM -RA BR BKN005 OVC033 04/03 A3026 RMK AO2 RAB41 SLP251 P0000 60004 T00360028 52024

Saat: 08:50 (15:50 UTC)


TAF: eksik

4.000'den fazla havaalanı için hava durumu gözlemleri ve tahminleri (METAR ve TAF raporları).

Kullanılabilir istasyonlar harita üzerinde sarı ve kırmızı noktalarla gösterilir.

İstasyonun adını görmek için fareyi noktanın üzerinde gezdirin.

Sonrasında hava gözlem ve tahminlerini görmek için tıklayın.

Haritayı değiştirmek için: yaklaştırmak için siyah artı işaretli yeşil düğmeye ve uzaklaştırmak için de eksi işaretli düğmeye hızla tıklayın; bitişik haritalar için yeşil okları kullanın.


METAR-TAF: